Time;durP1;ratioP1;P1;durP2;ratioP2;P2;SDS_P1;SDS_P2;PMS_P1;PMS_P2;Temp;Humidity;BMP_temperature;BMP_pressure;BME280_temperature;BME280_humidity;BME280_pressure;Samples;Min_cycle;Max_cycle;Signal;HPM_P1;HPM_P2
2022/08/06 00:00:10;;;;;;;0.55;0.50;;;24.70;50.90;;;;;;6219359;28;20503;-69
2022/08/06 00:03:10;;;;;;;0.77;0.70;;;24.70;50.90;;;;;;6197073;28;20424;-68
2022/08/06 00:06:11;;;;;;;0.80;0.60;;;24.60;50.80;;;;;;6214462;28;20112;-69
2022/08/06 00:09:12;;;;;;;0.80;0.60;;;24.60;50.90;;;;;;6244686;28;20021;-69
2022/08/06 00:12:12;;;;;;;0.55;0.55;;;24.70;50.90;;;;;;6228002;28;20388;-69
2022/08/06 00:15:13;;;;;;;0.80;0.63;;;24.60;50.90;;;;;;6220544;28;20052;-68
2022/08/06 00:18:14;;;;;;;0.60;0.60;;;24.70;51.00;;;;;;6244355;28;20499;-69
2022/08/06 00:21:14;;;;;;;0.52;0.50;;;24.60;50.90;;;;;;6236501;28;20022;-69
2022/08/06 00:24:15;;;;;;;0.90;0.80;;;24.60;50.90;;;;;;6218451;28;20057;-68
2022/08/06 00:27:16;;;;;;;0.50;0.50;;;24.60;51.00;;;;;;6235243;28;20072;-68
2022/08/06 00:30:16;;;;;;;0.60;0.60;;;24.60;50.90;;;;;;6244135;28;20037;-68
2022/08/06 00:33:17;;;;;;;1.33;0.80;;;24.60;51.00;;;;;;6220731;28;20030;-69
2022/08/06 00:36:18;;;;;;;0.73;0.68;;;24.60;50.90;;;;;;6219680;28;20052;-69
2022/08/06 00:39:18;;;;;;;0.52;0.52;;;24.60;51.10;;;;;;6219199;28;20030;-68
2022/08/06 00:42:19;;;;;;;0.95;0.60;;;24.60;51.00;;;;;;6233549;28;20037;-69
2022/08/06 00:45:21;;;;;;;0.68;0.60;;;24.60;51.10;;;;;;6243944;28;20105;-69
2022/08/06 00:48:21;;;;;;;0.60;0.60;;;24.60;51.00;;;;;;6222047;28;20037;-68
2022/08/06 00:51:23;;;;;;;0.68;0.60;;;24.60;51.10;;;;;;6224044;28;20089;-68
2022/08/06 00:54:24;;;;;;;0.70;0.70;;;24.60;51.10;;;;;;6243812;28;20152;-68
2022/08/06 00:57:24;;;;;;;0.60;0.57;;;24.60;51.10;;;;;;6231414;28;20030;-69
2022/08/06 01:00:25;;;;;;;0.90;0.55;;;24.60;51.10;;;;;;6217454;28;20026;-69
2022/08/06 01:03:25;;;;;;;0.63;0.60;;;24.60;51.80;;;;;;6219173;28;20053;-68
2022/08/06 01:06:26;;;;;;;0.75;0.65;;;24.60;51.10;;;;;;6222038;28;20033;-68
2022/08/06 01:09:27;;;;;;;0.60;0.55;;;24.60;51.10;;;;;;6243141;28;20399;-69
2022/08/06 01:12:28;;;;;;;0.60;0.60;;;24.60;51.20;;;;;;6232788;28;20030;-69
2022/08/06 01:15:28;;;;;;;0.55;0.55;;;24.60;51.10;;;;;;6218401;28;20105;-69
2022/08/06 01:18:35;;;;;;;0.70;0.70;;;24.60;51.20;;;;;;6237120;28;20090;-69
2022/08/06 01:22:09;;;;;;;0.55;0.55;;;24.60;51.20;;;;;;6240677;28;20037;-69
2022/08/06 01:25:21;;;;;;;0.60;0.60;;;24.60;51.30;;;;;;6214888;28;20050;-68
2022/08/06 01:28:25;;;;;;;0.73;0.57;;;24.60;51.20;;;;;;6218437;28;20165;-69
2022/08/06 01:31:45;;;;;;;0.50;0.50;;;24.60;51.20;;;;;;6218080;28;20022;-69
2022/08/06 01:34:54;;;;;;;1.77;0.70;;;24.60;51.20;;;;;;6190010;28;20045;-69
2022/08/06 01:38:07;;;;;;;0.52;0.50;;;24.60;51.30;;;;;;6216384;28;20055;-69
2022/08/06 01:41:12;;;;;;;0.55;0.55;;;24.60;51.20;;;;;;6241704;28;20064;-69
2022/08/06 01:44:18;;;;;;;0.93;0.73;;;24.60;51.30;;;;;;6222430;28;20416;-69
2022/08/06 01:47:21;;;;;;;0.63;0.60;;;24.60;51.30;;;;;;6223756;28;20037;-69
2022/08/06 01:50:33;;;;;;;0.90;0.60;;;24.60;51.40;;;;;;6241862;28;20053;-68
2022/08/06 01:53:38;;;;;;;0.60;0.60;;;24.60;51.30;;;;;;6228316;28;20370;-68
2022/08/06 01:56:41;;;;;;;1.52;0.68;;;24.60;51.40;;;;;;6217922;28;20030;-69
2022/08/06 01:59:46;;;;;;;0.70;0.70;;;24.60;51.30;;;;;;6240638;28;20033;-69
2022/08/06 02:02:48;;;;;;;0.63;0.60;;;24.50;51.40;;;;;;6209359;28;20387;-69
2022/08/06 02:05:54;;;;;;;0.80;0.70;;;24.60;51.40;;;;;;6242121;28;20068;-69
2022/08/06 02:08:57;;;;;;;0.63;0.63;;;24.60;51.40;;;;;;6227224;28;20037;-68
2022/08/06 02:12:07;;;;;;;0.60;0.60;;;24.60;51.40;;;;;;6217962;28;20029;-69
2022/08/06 02:15:08;;;;;;;0.60;0.60;;;24.60;51.40;;;;;;6241917;28;20071;-68
2022/08/06 02:18:10;;;;;;;0.57;0.57;;;24.60;51.40;;;;;;6234251;28;20504;-68
2022/08/06 02:21:17;;;;;;;0.65;0.60;;;24.60;51.40;;;;;;6218645;28;20388;-69
2022/08/06 02:24:19;;;;;;;0.70;0.60;;;24.60;51.50;;;;;;6234634;28;20124;-69
2022/08/06 02:27:20;;;;;;;0.50;0.50;;;24.60;51.50;;;;;;6243489;28;20032;-69
2022/08/06 02:30:23;;;;;;;0.68;0.60;;;24.60;51.50;;;;;;6218825;28;20034;-69
2022/08/06 02:33:25;;;;;;;0.57;0.57;;;24.60;51.50;;;;;;6217401;28;20029;-69
2022/08/06 02:36:47;;;;;;;0.70;0.70;;;24.60;51.50;;;;;;6217664;28;20102;-68
2022/08/06 02:40:01;;;;;;;0.85;0.68;;;24.60;51.50;;;;;;6235521;28;20135;-68
2022/08/06 02:43:06;;;;;;;0.40;0.40;;;24.60;51.50;;;;;;6238677;28;20480;-68
2022/08/06 02:46:09;;;;;;;0.70;0.60;;;24.60;51.50;;;;;;6217453;28;20033;-68
2022/08/06 02:49:16;;;;;;;1.20;0.80;;;24.60;51.60;;;;;;6229123;28;20029;-68
2022/08/06 02:52:21;;;;;;;0.65;0.65;;;24.60;51.50;;;;;;6243151;28;20049;-70
2022/08/06 02:55:31;;;;;;;0.68;0.68;;;24.60;51.60;;;;;;6221444;28;20053;-69
2022/08/06 02:58:35;;;;;;;0.63;0.57;;;24.60;51.60;;;;;;6222732;28;20199;-69
2022/08/06 03:01:42;;;;;;;0.90;0.55;;;24.60;51.60;;;;;;6217333;28;20077;-68
2022/08/06 03:04:47;;;;;;;1.17;0.60;;;24.60;51.60;;;;;;6225210;28;20068;-69
2022/08/06 03:07:52;;;;;;;0.60;0.60;;;24.50;52.40;;;;;;6245867;28;20038;-69
2022/08/06 03:10:55;;;;;;;1.08;0.85;;;24.40;49.60;;;;;;6222950;28;20040;-68
2022/08/06 03:13:57;;;;;;;0.70;0.70;;;24.40;49.10;;;;;;6227835;28;20083;-69
2022/08/06 03:16:58;;;;;;;0.50;0.50;;;24.50;48.80;;;;;;6245588;28;20013;-69
2022/08/06 03:20:01;;;;;;;0.50;0.50;;;24.60;48.60;;;;;;6231544;28;20029;-69
2022/08/06 03:23:06;;;;;;;0.52;0.50;;;24.70;48.50;;;;;;6221348;28;20408;-68
2022/08/06 03:26:08;;;;;;;0.50;0.50;;;24.80;48.30;;;;;;6243761;28;20499;-68
2022/08/06 03:29:10;;;;;;;0.50;0.50;;;24.80;48.20;;;;;;6239641;28;20026;-69
2022/08/06 03:32:13;;;;;;;0.63;0.57;;;24.80;48.00;;;;;;6220844;28;20029;-68
2022/08/06 03:35:15;;;;;;;0.60;0.60;;;24.90;47.80;;;;;;6222923;28;20030;-68
2022/08/06 03:38:16;;;;;;;0.50;0.50;;;24.90;47.70;;;;;;6221299;28;20552;-68
2022/08/06 03:41:18;;;;;;;0.70;0.60;;;24.90;47.60;;;;;;6243209;28;20029;-69
2022/08/06 03:44:19;;;;;;;0.57;0.57;;;24.90;47.60;;;;;;6240442;28;20026;-69
2022/08/06 03:47:21;;;;;;;0.65;0.63;;;25.00;47.40;;;;;;6220960;28;20550;-69
2022/08/06 03:50:33;;;;;;;0.73;0.68;;;25.00;47.30;;;;;;6232662;28;20033;-69
2022/08/06 03:53:36;;;;;;;0.70;0.50;;;25.00;47.20;;;;;;6246278;28;20113;-68
2022/08/06 03:56:40;;;;;;;0.90;0.60;;;25.00;47.20;;;;;;6222303;28;20105;-68
2022/08/06 03:59:43;;;;;;;0.82;0.70;;;25.00;47.00;;;;;;6226936;28;20495;-68
2022/08/06 04:02:49;;;;;;;0.60;0.60;;;25.00;47.00;;;;;;6201202;28;20026;-69
2022/08/06 04:05:50;;;;;;;0.57;0.57;;;25.00;46.90;;;;;;6225253;28;20428;-69
2022/08/06 04:08:52;;;;;;;0.57;0.57;;;25.10;46.90;;;;;;6244737;28;20419;-68
2022/08/06 04:11:54;;;;;;;0.60;0.60;;;25.10;46.80;;;;;;6222000;28;20413;-69
2022/08/06 04:14:55;;;;;;;0.68;0.63;;;25.10;47.10;;;;;;6225830;28;20034;-69
2022/08/06 04:17:56;;;;;;;0.55;0.55;;;24.90;48.50;;;;;;6244849;28;20030;-68
2022/08/06 04:21:02;;;;;;;0.65;0.65;;;24.80;48.30;;;;;;6231415;28;20029;-69
2022/08/06 04:24:03;;;;;;;0.50;0.50;;;24.80;48.90;;;;;;6219919;28;20076;-69
2022/08/06 04:27:05;;;;;;;0.50;0.50;;;24.70;48.70;;;;;;6243695;28;20037;-68
2022/08/06 04:30:07;;;;;;;0.85;0.80;;;24.70;49.00;;;;;;6238504;28;20026;-68
2022/08/06 04:33:12;;;;;;;0.60;0.60;;;24.70;49.30;;;;;;6219935;28;20018;-69
2022/08/06 04:36:13;;;;;;;0.65;0.50;;;24.70;49.30;;;;;;6218246;28;20064;-69
2022/08/06 04:39:15;;;;;;;0.50;0.50;;;24.60;49.50;;;;;;6219981;28;20021;-68
2022/08/06 04:42:17;;;;;;;1.10;0.63;;;24.60;49.60;;;;;;6242156;28;20030;-69
2022/08/06 04:45:18;;;;;;;0.50;0.50;;;24.60;49.70;;;;;;6240098;28;20034;-69
2022/08/06 04:48:20;;;;;;;0.60;0.55;;;24.60;49.80;;;;;;6168501;28;20509;-69
2022/08/06 04:51:23;;;;;;;0.60;0.60;;;24.60;50.00;;;;;;6168653;28;20064;-69
2022/08/06 04:54:23;;;;;;;0.93;0.82;;;24.60;50.00;;;;;;6168381;28;20282;-68
2022/08/06 04:57:24;;;;;;;0.45;0.45;;;24.60;50.10;;;;;;6168225;28;20035;-69
2022/08/06 05:00:40;;;;;;;0.70;0.60;;;24.60;50.20;;;;;;6167701;28;20019;-69
2022/08/06 05:03:40;;;;;;;0.60;0.60;;;24.60;50.30;;;;;;6166986;28;20046;-69
2022/08/06 05:06:49;;;;;;;0.60;0.60;;;24.60;50.30;;;;;;6166972;28;20343;-69
2022/08/06 05:09:50;;;;;;;0.90;0.68;;;24.60;50.40;;;;;;6167106;28;20030;-69
2022/08/06 05:12:55;;;;;;;0.75;0.65;;;24.60;50.40;;;;;;6166952;28;20039;-69
2022/08/06 05:15:58;;;;;;;0.77;0.60;;;24.60;50.50;;;;;;6166706;28;20114;-69
2022/08/06 05:19:02;;;;;;;0.47;0.47;;;24.60;50.50;;;;;;6192148;28;20038;-68
2022/08/06 05:22:06;;;;;;;0.75;0.50;;;24.60;50.60;;;;;;6233283;28;20124;-69
2022/08/06 05:25:07;;;;;;;0.52;0.47;;;24.60;50.50;;;;;;6231991;28;20061;-69
2022/08/06 05:28:08;;;;;;;0.60;0.60;;;24.60;50.60;;;;;;6218598;28;20026;-69
2022/08/06 05:31:09;;;;;;;0.75;0.57;;;24.60;50.70;;;;;;6222365;28;20048;-69
2022/08/06 05:34:10;;;;;;;0.50;0.50;;;24.60;50.70;;;;;;6219502;28;20022;-69
2022/08/06 05:37:11;;;;;;;0.57;0.57;;;24.60;50.80;;;;;;6219079;28;20025;-69
2022/08/06 05:40:12;;;;;;;3.13;0.55;;;24.60;50.80;;;;;;6219218;28;20084;-69
2022/08/06 05:43:12;;;;;;;0.50;0.50;;;24.60;50.90;;;;;;6239530;28;20029;-69
2022/08/06 05:46:18;;;;;;;0.50;0.50;;;24.60;50.90;;;;;;6238067;28;20033;-68
2022/08/06 05:49:27;;;;;;;1.17;0.65;;;24.60;50.90;;;;;;6216839;28;20113;-69
2022/08/06 05:52:54;;;;;;;0.52;0.40;;;24.60;50.90;;;;;;6232101;28;20055;-68
2022/08/06 05:55:59;;;;;;;0.70;0.60;;;24.60;50.90;;;;;;6241959;28;20124;-69
2022/08/06 05:59:04;;;;;;;0.60;0.60;;;24.60;51.00;;;;;;6217958;28;20025;-68
2022/08/06 06:02:06;;;;;;;0.80;0.68;;;24.60;50.90;;;;;;6227148;28;20112;-69
2022/08/06 06:05:08;;;;;;;0.63;0.60;;;24.60;51.00;;;;;;6242713;28;20103;-69
2022/08/06 06:08:09;;;;;;;0.68;0.50;;;24.60;51.00;;;;;;6225329;28;20547;-68
2022/08/06 06:11:10;;;;;;;0.85;0.60;;;24.50;51.00;;;;;;6217804;28;20037;-68
2022/08/06 06:14:28;;;;;;;0.40;0.40;;;24.60;51.10;;;;;;6243319;28;20057;-68
2022/08/06 06:17:59;;;;;;;0.63;0.63;;;24.60;51.10;;;;;;6232455;28;20098;-69
2022/08/06 06:21:12;;;;;;;0.47;0.47;;;24.60;51.20;;;;;;6218912;28;20492;-68
2022/08/06 06:24:26;;;;;;;0.75;0.55;;;24.60;51.20;;;;;;6242847;28;20377;-69
2022/08/06 06:27:39;;;;;;;0.60;0.60;;;24.60;51.20;;;;;;6234599;28;20125;-69
2022/08/06 06:31:00;;;;;;;0.50;0.50;;;24.60;51.20;;;;;;6218964;28;20061;-69
2022/08/06 06:34:15;;;;;;;0.57;0.57;;;24.60;51.30;;;;;;6238567;28;20048;-68
2022/08/06 06:37:21;;;;;;;0.47;0.47;;;24.50;51.30;;;;;;6239238;28;20017;-68
2022/08/06 06:40:24;;;;;;;0.30;0.30;;;24.50;51.20;;;;;;6222743;28;20034;-68
2022/08/06 06:43:51;;;;;;;2.17;0.52;;;24.50;51.20;;;;;;6236916;28;20079;-68
2022/08/06 06:47:04;;;;;;;0.60;0.60;;;24.50;51.30;;;;;;6246083;28;20168;-69
2022/08/06 06:50:11;;;;;;;0.47;0.47;;;24.50;51.20;;;;;;6223682;28;20105;-69
2022/08/06 06:53:14;;;;;;;0.50;0.50;;;24.50;51.30;;;;;;6234558;28;20392;-69
2022/08/06 06:56:19;;;;;;;0.57;0.57;;;24.50;51.30;;;;;;6247930;28;20033;-69
2022/08/06 06:59:33;;;;;;;0.40;0.38;;;24.50;51.30;;;;;;6227405;28;20388;-69
2022/08/06 07:02:40;;;;;;;1.08;0.47;;;24.50;51.30;;;;;;6227491;28;20053;-69
2022/08/06 07:05:44;;;;;;;0.60;0.60;;;24.50;51.50;;;;;;6246450;28;20049;-68
2022/08/06 07:08:47;;;;;;;0.82;0.60;;;24.50;51.40;;;;;;6233192;28;20025;-69
2022/08/06 07:11:50;;;;;;;0.60;0.60;;;24.50;51.40;;;;;;6223006;28;20448;-68
2022/08/06 07:14:53;;;;;;;0.55;0.55;;;24.50;51.40;;;;;;6243823;28;20028;-68
2022/08/06 07:17:55;;;;;;;0.55;0.50;;;24.50;51.40;;;;;;6240634;28;20022;-69
2022/08/06 07:20:57;;;;;;;0.73;0.70;;;24.50;51.40;;;;;;6222544;28;20527;-69
2022/08/06 07:23:58;;;;;;;1.02;0.70;;;24.50;51.50;;;;;;6234013;28;20054;-68
2022/08/06 07:27:00;;;;;;;0.50;0.50;;;24.50;51.50;;;;;;6221525;28;20030;-68
2022/08/06 07:30:01;;;;;;;0.47;0.43;;;24.50;51.50;;;;;;6221612;28;20084;-69
2022/08/06 07:33:03;;;;;;;0.82;0.50;;;24.50;51.50;;;;;;6220531;28;20018;-68
2022/08/06 07:36:05;;;;;;;0.52;0.52;;;24.50;51.60;;;;;;6221324;28;20495;-68
2022/08/06 07:39:11;;;;;;;0.45;0.45;;;24.50;51.50;;;;;;6233512;28;20523;-68
2022/08/06 07:42:14;;;;;;;0.82;0.50;;;24.50;51.60;;;;;;6246421;28;20056;-68
2022/08/06 07:45:17;;;;;;;0.75;0.73;;;24.50;51.60;;;;;;6224860;28;20100;-68
2022/08/06 07:48:24;;;;;;;1.20;0.60;;;24.50;51.70;;;;;;6225645;28;20014;-69
2022/08/06 07:51:30;;;;;;;0.57;0.57;;;24.50;51.60;;;;;;6246672;28;20029;-69
2022/08/06 07:54:31;;;;;;;0.75;0.50;;;24.50;51.70;;;;;;6231200;28;20489;-68
2022/08/06 07:57:32;;;;;;;0.60;0.60;;;24.50;51.70;;;;;;6220632;28;20014;-69
2022/08/06 08:00:34;;;;;;;0.60;0.50;;;24.50;51.70;;;;;;6233554;28;20023;-69
2022/08/06 08:07:00;;;;;;;0.60;0.50;;;24.50;51.80;;;;;;6246035;28;20066;-69
2022/08/06 08:10:01;;;;;;;0.70;0.63;;;24.50;51.70;;;;;;6229800;28;20029;-69
2022/08/06 08:13:01;;;;;;;0.60;0.60;;;24.50;51.70;;;;;;6221354;28;20088;-69
2022/08/06 08:16:04;;;;;;;0.50;0.50;;;24.50;51.80;;;;;;6245106;28;20475;-69
2022/08/06 08:19:22;;;;;;;0.60;0.60;;;24.50;51.80;;;;;;6238621;28;20280;-68
2022/08/06 08:22:23;;;;;;;0.40;0.40;;;24.50;51.80;;;;;;6221014;28;20025;-68
2022/08/06 08:25:23;;;;;;;0.43;0.43;;;24.50;51.80;;;;;;6252279;28;20025;-69
2022/08/06 08:28:24;;;;;;;1.02;0.50;;;24.50;51.80;;;;;;6244372;28;20026;-69
2022/08/06 08:31:24;;;;;;;0.60;0.60;;;24.50;51.90;;;;;;6219485;28;20033;-69
2022/08/06 08:34:25;;;;;;;1.20;0.50;;;24.50;51.90;;;;;;6219625;28;20026;-69
2022/08/06 08:37:26;;;;;;;0.50;0.50;;;24.50;51.90;;;;;;6220312;28;20053;-69
2022/08/06 08:40:31;;;;;;;0.70;0.68;;;24.50;51.90;;;;;;6235214;28;20105;-69
2022/08/06 08:43:39;;;;;;;;;;;24.50;51.90;;;;;;6244422;28;20410;-69
2022/08/06 08:46:42;;;;;;;0.60;0.50;;;24.50;52.60;;;;;;6195471;28;19917;-68
2022/08/06 08:49:57;;;;;;;0.68;0.60;;;24.50;51.90;;;;;;6210915;28;20017;-69
2022/08/06 08:53:08;;;;;;;0.60;0.60;;;24.50;52.00;;;;;;6243720;28;20025;-68
2022/08/06 08:56:11;;;;;;;0.93;0.70;;;24.50;51.90;;;;;;6225723;28;20034;-69
2022/08/06 08:59:12;;;;;;;0.80;0.70;;;24.50;52.00;;;;;;6222552;28;20030;-69
2022/08/06 09:02:13;;;;;;;1.05;0.73;;;24.50;51.90;;;;;;6208620;28;20108;-68
2022/08/06 09:05:14;;;;;;;0.60;0.50;;;24.50;52.00;;;;;;6216105;28;20025;-69
2022/08/06 09:08:17;;;;;;;0.70;0.70;;;24.50;51.90;;;;;;6244365;28;20034;-68
2022/08/06 09:11:17;;;;;;;0.70;0.70;;;24.50;52.10;;;;;;6225208;28;20036;-68
2022/08/06 09:14:20;;;;;;;0.50;0.50;;;24.50;52.00;;;;;;6220794;28;20030;-69
2022/08/06 09:17:21;;;;;;;0.60;0.60;;;24.50;52.00;;;;;;6243329;28;20025;-69
2022/08/06 09:20:22;;;;;;;0.50;0.43;;;24.50;52.00;;;;;;6234277;28;20079;-68
2022/08/06 09:23:22;;;;;;;0.98;0.80;;;24.50;52.10;;;;;;6218403;28;20085;-68
2022/08/06 09:26:23;;;;;;;0.75;0.60;;;24.50;52.00;;;;;;6235704;28;20113;-68
2022/08/06 09:29:24;;;;;;;0.40;0.32;;;24.50;52.10;;;;;;6242771;28;20108;-69
2022/08/06 09:32:40;;;;;;;0.50;0.50;;;24.50;52.00;;;;;;6218554;28;20073;-68
2022/08/06 09:35:41;;;;;;;0.93;0.50;;;24.50;52.10;;;;;;6207772;28;20036;-69
2022/08/06 09:38:53;;;;;;;2.38;0.63;;;24.50;52.10;;;;;;6185976;28;20385;-68
2022/08/06 09:41:54;;;;;;;0.57;0.50;;;24.50;52.10;;;;;;6212915;28;20036;-69
2022/08/06 09:45:12;;;;;;;0.85;0.45;;;24.50;52.10;;;;;;6226718;28;20034;-68
2022/08/06 09:48:13;;;;;;;0.80;0.57;;;24.50;52.10;;;;;;6236819;28;20117;-68
2022/08/06 09:51:23;;;;;;;0.75;0.60;;;24.50;52.10;;;;;;6216773;28;20048;-68
2022/08/06 09:54:37;;;;;;;4.68;1.00;;;24.50;51.20;;;;;;6231065;28;20029;-68
2022/08/06 09:57:45;;;;;;;1.52;0.85;;;24.50;50.40;;;;;;6239787;28;20021;-68
2022/08/06 10:00:46;;;;;;;2.97;0.80;;;24.50;50.50;;;;;;6222337;28;20034;-68
2022/08/06 10:03:47;;;;;;;2.25;0.90;;;24.50;50.10;;;;;;6192028;28;20049;-68
2022/08/06 10:06:57;;;;;;;1.02;0.70;;;24.50;50.10;;;;;;6221199;28;20477;-68
2022/08/06 10:09:58;;;;;;;2.83;0.90;;;24.50;50.00;;;;;;6241586;28;20648;-69
2022/08/06 10:13:17;;;;;;;1.42;0.98;;;24.50;50.00;;;;;;6217765;28;20022;-68
2022/08/06 10:16:26;;;;;;;2.28;0.90;;;24.50;49.60;;;;;;6227166;28;20036;-69
2022/08/06 10:19:27;;;;;;;1.40;0.55;;;24.50;49.70;;;;;;6241794;28;20037;-69
2022/08/06 10:22:27;;;;;;;4.43;0.82;;;24.50;49.60;;;;;;6223597;28;20036;-68
2022/08/06 10:25:29;;;;;;;3.50;0.90;;;24.50;49.70;;;;;;6218504;28;20503;-69
2022/08/06 10:28:33;;;;;;;1.13;0.57;;;24.50;49.70;;;;;;6241461;28;20667;-68
2022/08/06 10:31:35;;;;;;;1.20;0.70;;;24.50;49.70;;;;;;6221681;28;20484;-70
2022/08/06 10:34:38;;;;;;;1.95;0.73;;;24.50;49.60;;;;;;6217310;28;20057;-69
2022/08/06 10:37:42;;;;;;;1.40;0.70;;;24.50;49.70;;;;;;6216111;28;20101;-69
2022/08/06 10:40:44;;;;;;;1.05;0.60;;;24.50;49.60;;;;;;6217813;28;20034;-69
2022/08/06 10:43:46;;;;;;;2.53;0.50;;;24.50;49.50;;;;;;6242071;28;20488;-69
2022/08/06 10:46:46;;;;;;;2.20;0.60;;;24.60;51.10;;;;;;6225582;28;20099;-69
2022/08/06 10:49:48;;;;;;;3.80;0.75;;;24.60;50.70;;;;;;6240195;28;20033;-69
2022/08/06 10:52:49;;;;;;;4.00;0.50;;;24.60;51.00;;;;;;6222833;28;20026;-69
2022/08/06 10:55:50;;;;;;;1.80;0.65;;;24.60;49.40;;;;;;6215548;28;20030;-69
2022/08/06 10:58:52;;;;;;;3.38;0.75;;;24.50;50.00;;;;;;6240506;28;20024;-69
2022/08/06 11:02:06;;;;;;;12.48;1.08;;;24.50;49.20;;;;;;6224287;28;20041;-69
2022/08/06 11:05:12;;;;;;;3.75;0.70;;;24.50;49.50;;;;;;6238976;28;20021;-69
2022/08/06 11:08:21;;;;;;;4.68;1.00;;;24.40;49.80;;;;;;6221852;28;20061;-69
2022/08/06 11:11:43;;;;;;;3.92;1.33;;;24.40;49.30;;;;;;6217157;28;20488;-69
2022/08/06 11:14:45;;;;;;;8.15;0.80;;;24.40;49.40;;;;;;6240496;28;20304;-69
2022/08/06 11:17:48;;;;;;;8.65;1.10;;;24.40;48.50;;;;;;6226716;28;20080;-69
2022/08/06 11:20:52;;;;;;;8.25;1.10;;;24.40;48.90;;;;;;6213550;28;20060;-69
2022/08/06 11:24:00;;;;;;;2.63;1.20;;;24.40;49.10;;;;;;6231585;28;20068;-69
2022/08/06 11:27:01;;;;;;;3.70;1.05;;;24.30;48.60;;;;;;6219426;28;20091;-68
2022/08/06 11:30:12;;;;;;;9.07;1.83;;;24.30;48.00;;;;;;6218910;28;20026;-69
2022/08/06 11:33:18;;;;;;;8.68;1.35;;;24.30;48.20;;;;;;6234129;28;20544;-69
2022/08/06 11:36:27;;;;;;;7.22;1.38;;;24.40;47.20;;;;;;6219524;28;20022;-68
2022/08/06 11:39:27;;;;;;;9.65;1.00;;;24.40;48.20;;;;;;6243887;28;20041;-68
2022/08/06 11:42:46;;;;;;;1.45;0.70;;;24.40;48.80;;;;;;6235563;28;20497;-68
2022/08/06 11:46:28;;;;;;;4.20;1.20;;;24.40;48.30;;;;;;6194279;28;20048;-67
2022/08/06 11:49:40;;;;;;;2.25;1.17;;;24.30;48.40;;;;;;6185781;28;20272;-69
2022/08/06 11:52:42;;;;;;;2.38;1.08;;;24.30;47.80;;;;;;6209714;28;20033;-69
2022/08/06 11:56:03;;;;;;;2.15;0.82;;;24.30;47.80;;;;;;6227206;28;20049;-69
2022/08/06 11:59:14;;;;;;;3.53;0.95;;;24.30;47.50;;;;;;6236981;28;20032;-69
2022/08/06 12:02:49;;;;;;;1.70;0.80;;;24.40;46.80;;;;;;6211759;28;20121;-69
2022/08/06 12:05:49;;;;;;;4.05;0.82;;;24.40;46.30;;;;;;6243018;28;20404;-69
2022/08/06 12:09:10;;;;;;;0.93;0.60;;;24.40;46.50;;;;;;6217487;28;20033;-69
2022/08/06 12:12:28;;;;;;;2.28;0.70;;;24.40;46.30;;;;;;6218596;28;20030;-69
2022/08/06 12:15:30;;;;;;;2.05;0.98;;;24.40;46.40;;;;;;6243229;28;20040;-69
2022/08/06 12:18:38;;;;;;;3.03;0.70;;;24.50;46.10;;;;;;6231822;28;20187;-69
2022/08/06 12:21:40;;;;;;;3.38;0.98;;;24.50;46.10;;;;;;6218526;28;20489;-68
2022/08/06 12:24:44;;;;;;;4.90;0.93;;;24.50;45.70;;;;;;6231180;28;20050;-69
2022/08/06 12:27:45;;;;;;;2.88;1.17;;;24.50;45.00;;;;;;6219548;28;20037;-68
2022/08/06 12:30:54;;;;;;;1.98;1.08;;;24.50;45.00;;;;;;6219533;28;20168;-69
2022/08/06 12:33:55;;;;;;;3.35;1.30;;;24.50;45.20;;;;;;6233871;28;20026;-68
2022/08/06 12:36:56;;;;;;;2.30;0.93;;;24.50;45.40;;;;;;6219974;28;20032;-69
2022/08/06 12:43:16;;;;;;;2.35;0.70;;;24.50;45.10;;;;;;6238181;28;20030;-68
2022/08/06 12:46:16;;;;;;;1.60;0.77;;;24.50;44.60;;;;;;6219061;28;20387;-69
2022/08/06 12:49:29;;;;;;;1.52;0.60;;;24.40;44.60;;;;;;6233145;28;20045;-68
2022/08/06 12:52:30;;;;;;;2.22;0.63;;;24.50;44.50;;;;;;6242823;28;20037;-67
2022/08/06 12:55:41;;;;;;;2.10;0.80;;;24.50;44.50;;;;;;6209062;28;20504;-68
2022/08/06 12:58:43;;;;;;;2.05;0.60;;;24.50;44.10;;;;;;6222713;28;20068;-68
2022/08/06 13:01:44;;;;;;;2.47;0.45;;;24.50;43.60;;;;;;6218194;28;20036;-68
2022/08/06 13:04:49;;;;;;;0.82;0.57;;;24.50;43.50;;;;;;6218350;28;20026;-68
2022/08/06 13:07:50;;;;;;;1.42;0.50;;;24.50;44.00;;;;;;6215723;28;20034;-68
2022/08/06 13:10:53;;;;;;;1.05;0.63;;;24.50;43.50;;;;;;6240017;28;20575;-68
2022/08/06 13:13:54;;;;;;;1.25;0.50;;;24.50;44.00;;;;;;6233007;28;20112;-68
2022/08/06 13:16:56;;;;;;;2.85;0.70;;;24.50;44.30;;;;;;6241163;28;20491;-67
2022/08/06 13:20:00;;;;;;;1.20;0.50;;;24.50;44.00;;;;;;6224635;28;20482;-69
2022/08/06 13:23:01;;;;;;;1.00;0.60;;;24.50;43.10;;;;;;6216797;28;20046;-68
2022/08/06 13:26:23;;;;;;;1.48;0.60;;;24.50;43.10;;;;;;6216600;28;20078;-68
2022/08/06 13:29:26;;;;;;;0.77;0.35;;;24.50;43.40;;;;;;6217717;28;20038;-69
2022/08/06 13:32:27;;;;;;;1.38;0.60;;;24.40;43.80;;;;;;6216443;28;20022;-67
2022/08/06 13:35:27;;;;;;;1.33;0.50;;;24.50;44.20;;;;;;6216300;28;20366;-67
2022/08/06 13:38:31;;;;;;;1.60;0.50;;;24.50;43.40;;;;;;6218083;28;20030;-69
2022/08/06 13:41:32;;;;;;;0.90;0.50;;;24.40;44.40;;;;;;6242995;28;20492;-69
2022/08/06 13:44:38;;;;;;;1.52;0.75;;;24.50;43.40;;;;;;6233987;28;20512;-67
2022/08/06 13:47:38;;;;;;;2.03;0.60;;;24.50;44.00;;;;;;6216439;28;20066;-68
2022/08/06 13:50:45;;;;;;;1.30;0.50;;;24.50;44.10;;;;;;6218283;28;20029;-69
2022/08/06 13:53:46;;;;;;;0.68;0.40;;;24.50;44.90;;;;;;6218910;28;20040;-68
2022/08/06 13:56:48;;;;;;;5.20;0.40;;;24.50;44.40;;;;;;6197272;28;20031;-68
2022/08/06 13:59:49;;;;;;;1.58;0.47;;;24.60;43.10;;;;;;6209883;28;20014;-67
2022/08/06 14:02:49;;;;;;;1.35;0.40;;;24.60;43.60;;;;;;6195353;28;20401;-68
2022/08/06 14:05:50;;;;;;;1.08;0.50;;;24.60;44.10;;;;;;6221327;28;20451;-68
2022/08/06 14:08:51;;;;;;;1.73;0.60;;;24.50;44.10;;;;;;6218105;28;20499;-68
2022/08/06 14:11:59;;;;;;;1.75;0.40;;;24.50;43.90;;;;;;6240820;28;20056;-67
2022/08/06 14:15:00;;;;;;;1.58;0.40;;;24.50;44.00;;;;;;6235352;28;20071;-68
2022/08/06 14:18:01;;;;;;;0.63;0.40;;;24.40;44.30;;;;;;6218601;28;20030;-68
2022/08/06 14:21:02;;;;;;;0.50;0.30;;;24.40;43.90;;;;;;6232802;28;20817;-68
2022/08/06 14:24:03;;;;;;;0.80;0.50;;;24.40;43.40;;;;;;6242274;28;20049;-69
2022/08/06 14:27:04;;;;;;;1.58;0.60;;;24.40;43.60;;;;;;6219838;28;20041;-68
2022/08/06 14:30:05;;;;;;;1.08;0.32;;;24.50;43.30;;;;;;6223335;28;20438;-67
2022/08/06 14:33:09;;;;;;;1.95;0.50;;;24.50;43.20;;;;;;6224731;28;20034;-68
2022/08/06 14:36:09;;;;;;;1.35;0.50;;;24.50;42.90;;;;;;6217406;28;20649;-67
2022/08/06 14:39:13;;;;;;;2.67;0.57;;;24.50;41.70;;;;;;6217975;28;20022;-68
2022/08/06 14:45:32;;;;;;;4.78;0.50;;;24.50;40.90;;;;;;6233045;28;20033;-67
2022/08/06 14:48:33;;;;;;;0.60;0.40;;;24.50;40.60;;;;;;6215973;28;20451;-67
2022/08/06 14:51:33;;;;;;;4.65;0.60;;;24.50;41.30;;;;;;6224421;28;20029;-67
2022/08/06 14:54:35;;;;;;;1.30;0.55;;;24.60;41.20;;;;;;6188286;28;20109;-68
2022/08/06 14:57:36;;;;;;;1.48;0.45;;;24.60;40.70;;;;;;6207253;28;20109;-68
2022/08/06 15:00:37;;;;;;;10.38;0.55;;;24.60;40.40;;;;;;6203884;28;20024;-68
2022/08/06 15:03:38;;;;;;;5.68;0.63;;;24.60;41.20;;;;;;6218177;28;20025;-67
2022/08/06 15:06:38;;;;;;;2.15;0.60;;;24.70;41.70;;;;;;6225556;28;20040;-67
2022/08/06 15:09:39;;;;;;;1.45;0.47;;;24.70;42.00;;;;;;6222063;28;20025;-67
2022/08/06 15:12:40;;;;;;;12.45;0.90;;;24.80;43.30;;;;;;6221857;28;20022;-67
2022/08/06 15:15:40;;;;;;;9.00;1.35;;;24.80;44.20;;;;;;6225259;28;20572;-67
2022/08/06 15:18:42;;;;;;;14.40;1.35;;;24.80;43.50;;;;;;6240497;28;20029;-68
2022/08/06 15:21:42;;;;;;;13.43;1.52;;;24.80;43.90;;;;;;6233250;28;20026;-68
2022/08/06 15:24:43;;;;;;;8.27;1.13;;;24.80;44.30;;;;;;6218236;28;20504;-68
2022/08/06 15:27:44;;;;;;;8.45;1.13;;;24.80;44.30;;;;;;6218908;28;20038;-68
2022/08/06 15:30:45;;;;;;;7.97;1.23;;;24.80;44.50;;;;;;6223546;28;20206;-67
2022/08/06 15:33:46;;;;;;;6.88;1.35;;;24.80;44.50;;;;;;6221671;28;20366;-67
2022/08/06 15:36:47;;;;;;;7.75;1.40;;;24.80;44.40;;;;;;6230746;28;20025;-67
2022/08/06 15:39:47;;;;;;;5.97;1.13;;;24.80;44.50;;;;;;6242771;28;20028;-67
2022/08/06 15:42:48;;;;;;;9.65;1.40;;;24.80;44.60;;;;;;6224926;28;20481;-68
2022/08/06 15:45:49;;;;;;;6.30;1.13;;;24.80;44.80;;;;;;6219607;28;20030;-68
2022/08/06 15:48:50;;;;;;;7.60;1.20;;;24.80;44.90;;;;;;6222103;28;20457;-67
2022/08/06 15:51:52;;;;;;;12.45;1.20;;;24.80;45.00;;;;;;6225841;28;20202;-67
2022/08/06 15:54:52;;;;;;;7.95;1.08;;;24.80;45.10;;;;;;6210795;28;20034;-68
2022/08/06 15:57:53;;;;;;;2.90;1.00;;;24.80;45.30;;;;;;6233041;28;20058;-68
2022/08/06 16:00:54;;;;;;;4.95;0.90;;;24.80;45.30;;;;;;6220765;28;20037;-69
2022/08/06 16:03:54;;;;;;;1.63;0.80;;;24.90;45.90;;;;;;6238379;28;20029;-67
2022/08/06 16:06:55;;;;;;;7.55;0.95;;;24.90;46.30;;;;;;6207526;28;20034;-67
2022/08/06 16:09:56;;;;;;;4.03;1.00;;;24.80;46.30;;;;;;6232802;28;20037;-68